createdAt,value
2023-03-14T00:03:03.931Z,3.65
2023-03-14T00:08:05.833Z,1.88
2023-03-14T00:13:07.547Z,2.10
2023-03-14T00:18:09.126Z,1.67
2023-03-14T00:23:10.916Z,1.60
2023-03-14T00:28:12.691Z,1.55
2023-03-14T00:33:15.374Z,1.38
2023-03-14T00:38:17.207Z,1.27
2023-03-14T00:43:22.521Z,1.27
2023-03-14T00:48:24.392Z,1.70
2023-03-14T00:53:26.301Z,1.38
2023-03-14T00:58:28.162Z,0.80
2023-03-14T01:03:29.971Z,0.80
2023-03-14T01:08:31.898Z,1.05
2023-03-14T01:13:33.754Z,2.05
2023-03-14T01:18:38.978Z,1.00
2023-03-14T01:23:41.021Z,1.67
2023-03-14T01:28:43.011Z,0.80
2023-03-14T01:33:47.037Z,0.90
2023-03-14T01:38:48.966Z,0.90
2023-03-14T01:43:52.839Z,0.98
2023-03-14T01:49:11.962Z,1.23
2023-03-14T01:54:23.169Z,0.90
2023-03-14T01:59:26.622Z,0.90
2023-03-14T02:04:34.004Z,1.25
2023-03-14T02:09:37.597Z,1.10
2023-03-14T02:14:40.045Z,1.35
2023-03-14T02:20:29.156Z,1.52
2023-03-14T02:25:49.414Z,1.10
2023-03-14T02:30:51.386Z,1.30
2023-03-14T02:36:02.717Z,1.50
2023-03-14T02:41:05.364Z,1.33
2023-03-14T02:46:19.322Z,1.63
2023-03-14T02:51:23.443Z,1.80
2023-03-14T02:56:25.535Z,5.10
2023-03-14T03:01:27.446Z,1.55
2023-03-14T03:06:29.309Z,2.47
2023-03-14T03:11:32.670Z,1.70
2023-03-14T03:16:35.042Z,1.40
2023-03-14T03:21:36.872Z,1.58
2023-03-14T03:26:39.841Z,1.40
2023-03-14T03:31:46.480Z,1.60
2023-03-14T03:36:48.877Z,1.60
2023-03-14T03:41:50.827Z,1.73
2023-03-14T03:46:53.973Z,1.40
2023-03-14T03:51:55.773Z,1.58
2023-03-14T03:56:57.769Z,1.40
2023-03-14T04:01:59.748Z,1.83
2023-03-14T04:07:01.835Z,1.80
2023-03-14T04:12:03.922Z,1.30
2023-03-14T04:17:30.070Z,2.10
2023-03-14T04:22:31.973Z,2.78
2023-03-14T04:27:35.768Z,1.70
2023-03-14T04:32:41.389Z,2.15
2023-03-14T04:37:44.361Z,2.05
2023-03-14T04:42:49.966Z,1.73
2023-03-14T04:47:52.140Z,1.55
2023-03-14T04:52:55.230Z,2.13
2023-03-14T04:57:57.323Z,2.35
2023-03-14T05:03:00.456Z,3.22
2023-03-14T05:08:21.191Z,2.08
2023-03-14T05:13:39.211Z,2.28
2023-03-14T05:19:02.669Z,3.17
2023-03-14T05:24:23.308Z,3.50
2023-03-14T05:29:27.718Z,3.42
2023-03-14T05:35:08.806Z,2.08
2023-03-14T05:40:33.669Z,1.92
2023-03-14T05:45:55.862Z,2.20
2023-03-14T05:51:23.038Z,2.30
2023-03-14T05:56:41.574Z,2.72
2023-03-14T06:01:46.203Z,2.85
2023-03-14T06:06:55.340Z,2.90
2023-03-14T06:11:57.949Z,2.30
2023-03-14T06:17:00.272Z,2.78
2023-03-14T06:22:05.132Z,3.28
2023-03-14T06:27:09.536Z,2.80
2023-03-14T06:32:11.327Z,2.95
2023-03-14T06:37:13.555Z,2.38
2023-03-14T06:42:16.034Z,2.92
2023-03-14T06:47:19.004Z,3.08
2023-03-14T06:52:21.473Z,2.70
2023-03-14T06:57:23.489Z,2.78
2023-03-14T07:02:39.740Z,2.90
2023-03-14T07:07:48.985Z,3.17
2023-03-14T07:12:53.726Z,3.08
2023-03-14T07:17:57.142Z,3.35
2023-03-14T07:23:01.094Z,2.97
2023-03-14T07:28:16.295Z,3.17
2023-03-14T07:33:20.644Z,3.20
2023-03-14T07:38:23.107Z,2.95
2023-03-14T07:44:03.567Z,3.20
2023-03-14T07:49:05.318Z,3.42
2023-03-14T07:54:07.044Z,3.20
2023-03-14T07:59:08.786Z,3.55
2023-03-14T08:04:10.879Z,3.50
2023-03-14T08:09:12.476Z,3.03
2023-03-14T08:14:14.086Z,3.30
2023-03-14T08:19:15.692Z,3.55
2023-03-14T08:24:17.725Z,3.45
2023-03-14T08:29:19.328Z,4.10
2023-03-14T08:34:21.174Z,4.32
2023-03-14T08:39:22.817Z,4.80
2023-03-14T08:44:24.556Z,4.85
2023-03-14T08:49:26.285Z,5.13
2023-03-14T08:54:28.016Z,4.78
2023-03-14T08:59:29.823Z,4.65
2023-03-14T09:04:32.424Z,4.35
2023-03-14T09:09:34.140Z,4.78
2023-03-14T09:14:35.866Z,4.40
2023-03-14T09:19:37.650Z,4.18
2023-03-14T09:24:40.039Z,4.35
2023-03-14T09:29:41.679Z,4.25
2023-03-14T09:34:43.307Z,4.93
2023-03-14T09:39:44.895Z,6.70
2023-03-14T09:45:06.687Z,4.22
2023-03-14T09:50:15.610Z,4.80
2023-03-14T09:55:20.629Z,4.38
2023-03-14T10:00:26.805Z,5.70
2023-03-14T10:05:30.576Z,6.05
2023-03-14T10:10:33.338Z,4.90
2023-03-14T10:15:35.776Z,5.43
2023-03-14T10:20:40.392Z,5.35
2023-03-14T10:25:45.076Z,5.75
2023-03-14T10:30:47.524Z,5.88
2023-03-14T10:36:00.666Z,6.75
2023-03-14T10:41:04.164Z,7.60
2023-03-14T10:46:15.759Z,6.80
2023-03-14T10:51:37.685Z,6.50
2023-03-14T10:56:39.613Z,6.47
2023-03-14T11:01:53.808Z,5.78
2023-03-14T11:07:17.294Z,6.50
2023-03-14T11:12:37.061Z,7.18
2023-03-14T11:18:20.829Z,7.45
2023-03-14T11:23:26.648Z,7.70
2023-03-14T11:28:37.629Z,6.72
2023-03-14T11:33:47.850Z,6.80
2023-03-14T11:38:51.573Z,5.97
2023-03-14T11:43:59.326Z,5.35
2023-03-14T11:49:01.368Z,6.03
2023-03-14T11:54:17.204Z,5.80
2023-03-14T11:59:43.400Z,5.95
2023-03-14T12:04:55.660Z,6.45
2023-03-14T12:09:57.729Z,6.80
2023-03-14T12:15:01.737Z,6.38
2023-03-14T12:20:15.617Z,7.10
2023-03-14T12:25:21.235Z,7.22
2023-03-14T12:30:29.420Z,7.97
2023-03-14T12:35:39.573Z,8.88
2023-03-14T12:41:08.000Z,8.10
2023-03-14T12:46:16.484Z,7.97
2023-03-14T12:51:46.406Z,7.03
2023-03-14T12:57:05.534Z,6.72
2023-03-14T13:02:07.075Z,6.35
2023-03-14T13:07:34.478Z,6.78
2023-03-14T13:13:02.016Z,6.32
2023-03-14T13:18:24.939Z,6.22
2023-03-14T13:23:30.053Z,6.35
2023-03-14T13:28:32.873Z,7.38
2023-03-14T13:33:35.836Z,8.02
2023-03-14T13:38:37.535Z,8.85
2023-03-14T13:43:44.463Z,11.38
2023-03-14T13:48:50.741Z,11.70
2023-03-14T13:53:54.583Z,10.88
2023-03-14T13:58:56.774Z,10.05
2023-03-14T14:04:03.021Z,9.25
2023-03-14T14:09:28.140Z,8.18
2023-03-14T14:14:41.553Z,8.45
2023-03-14T14:19:44.979Z,9.05
2023-03-14T14:24:47.341Z,10.05
2023-03-14T14:30:02.486Z,10.88
2023-03-14T14:35:04.935Z,11.40
2023-03-14T14:40:17.463Z,10.90
2023-03-14T14:45:22.095Z,9.98
2023-03-14T14:50:54.073Z,9.88
2023-03-14T14:55:58.419Z,9.23
2023-03-14T15:01:15.615Z,8.80
2023-03-14T15:06:18.029Z,7.38
2023-03-14T15:11:25.536Z,4.10
2023-03-14T15:16:32.259Z,2.53
2023-03-14T15:21:34.743Z,2.20
2023-03-14T15:26:36.385Z,2.05
2023-03-14T15:31:38.245Z,1.48
2023-03-14T15:36:39.905Z,2.10
2023-03-14T15:41:41.596Z,1.67
2023-03-14T15:46:43.217Z,1.30
2023-03-14T15:51:44.827Z,1.23
2023-03-14T15:56:46.680Z,1.20
2023-03-14T16:01:49.072Z,1.50
2023-03-14T16:06:50.678Z,1.52
2023-03-14T16:11:52.328Z,2.55
2023-03-14T16:16:55.802Z,1.27
2023-03-14T16:21:57.563Z,0.90
2023-03-14T16:26:59.267Z,0.90
2023-03-14T16:32:00.984Z,1.60
2023-03-14T16:37:02.694Z,2.60
2023-03-14T16:42:04.335Z,2.00
2023-03-14T16:47:10.545Z,2.55
2023-03-14T16:52:12.768Z,2.65
2023-03-14T16:57:14.390Z,2.08
2023-03-14T17:02:16.066Z,2.42
2023-03-14T17:07:17.697Z,2.45
2023-03-14T17:12:19.298Z,2.90
2023-03-14T17:17:20.967Z,2.22
2023-03-14T17:22:25.148Z,1.90
2023-03-14T17:27:29.439Z,1.98
2023-03-14T17:32:31.208Z,3.53
2023-03-14T17:37:32.910Z,1.90
2023-03-14T17:42:34.517Z,2.83
2023-03-14T17:47:36.177Z,2.50
2023-03-14T17:52:38.181Z,2.38
2023-03-14T17:57:40.287Z,4.05
2023-03-14T18:02:42.111Z,2.88
2023-03-14T18:07:43.984Z,5.35
2023-03-14T18:12:45.677Z,5.97
2023-03-14T18:17:47.330Z,6.95
2023-03-14T18:22:48.973Z,5.25
2023-03-14T18:27:50.689Z,6.97
2023-03-14T18:32:52.405Z,5.10
2023-03-14T18:37:54.140Z,7.00
2023-03-14T18:42:56.530Z,8.55
2023-03-14T18:47:58.285Z,4.85
2023-03-14T18:52:59.949Z,3.85
2023-03-14T18:58:01.960Z,7.70
2023-03-14T19:03:04.254Z,10.73
2023-03-14T19:08:05.898Z,4.75
2023-03-14T19:13:07.535Z,6.70
2023-03-14T19:18:11.009Z,5.53
2023-03-14T19:23:16.714Z,12.73
2023-03-14T19:28:18.417Z,8.93
2023-03-14T19:33:20.781Z,7.72
2023-03-14T19:38:22.716Z,3.05
2023-03-14T19:43:25.343Z,5.72
2023-03-14T19:48:30.513Z,7.35
2023-03-14T19:53:32.700Z,6.43
2023-03-14T19:58:35.139Z,4.75
2023-03-14T20:03:37.392Z,9.77
2023-03-14T20:08:40.119Z,5.35
2023-03-14T20:13:41.898Z,8.55
2023-03-14T20:18:43.715Z,9.05
2023-03-14T20:23:45.445Z,6.70
2023-03-14T20:28:48.185Z,7.47
2023-03-14T20:33:51.504Z,5.28
2023-03-14T20:38:53.687Z,8.23
2023-03-14T20:43:55.331Z,5.20
2023-03-14T20:48:56.969Z,11.70
2023-03-14T20:53:58.996Z,7.00
2023-03-14T20:59:00.609Z,12.02
2023-03-14T21:04:02.460Z,5.90
2023-03-14T21:09:05.442Z,9.85
2023-03-14T21:14:07.309Z,10.05
2023-03-14T21:19:09.026Z,7.50
2023-03-14T21:24:10.726Z,9.57
2023-03-14T21:29:12.372Z,4.57
2023-03-14T21:34:14.233Z,5.70
2023-03-14T21:39:15.937Z,8.43
2023-03-14T21:44:19.164Z,5.70
2023-03-14T21:49:20.778Z,6.70
2023-03-14T21:54:22.449Z,5.80
2023-03-14T21:59:24.084Z,6.35
2023-03-14T22:04:34.519Z,6.75
2023-03-14T22:09:39.636Z,5.57
2023-03-14T22:14:41.241Z,3.05
2023-03-14T22:19:42.931Z,3.05
2023-03-14T22:24:44.770Z,7.03
2023-03-14T22:29:46.425Z,5.97
2023-03-14T22:34:48.060Z,8.32
2023-03-14T22:39:49.894Z,7.80
2023-03-14T22:44:52.735Z,6.22
2023-03-14T22:49:54.434Z,6.45
2023-03-14T22:54:56.149Z,4.53
2023-03-14T22:59:57.903Z,8.18
2023-03-14T23:04:59.582Z,5.72
2023-03-14T23:10:01.223Z,6.18
2023-03-14T23:15:06.066Z,8.50
2023-03-14T23:20:09.320Z,8.50
2023-03-14T23:25:11.611Z,4.45
2023-03-14T23:30:15.106Z,3.70
2023-03-14T23:35:16.876Z,5.55
2023-03-14T23:40:18.694Z,11.80
2023-03-14T23:45:20.479Z,7.38
2023-03-14T23:50:22.187Z,9.23
2023-03-14T23:55:23.976Z,4.43
